Time;durP1;ratioP1;P1;durP2;ratioP2;P2;SDS_P1;SDS_P2;PMS_P1;PMS_P2;Temp;Humidity;BMP_temperature;BMP_pressure;BME280_temperature;BME280_humidity;BME280_pressure;Samples;Min_cycle;Max_cycle;Signal;HPM_P1;HPM_P2
2022/04/14 00:01:31;;;;;;;58.00;18.67;;;;;;;12.04;100.00;102001.91;5013094;28;20029;-69
2022/04/14 00:03:56;;;;;;;56.20;18.40;;;;;;;12.00;100.00;101985.09;5012989;28;20076;-69
2022/04/14 00:06:21;;;;;;;56.85;18.42;;;;;;;11.98;100.00;101992.06;5010835;28;20022;-70
2022/04/14 00:08:47;;;;;;;60.80;18.13;;;;;;;11.99;100.00;101991.19;5012870;28;20032;-70
2022/04/14 00:11:13;;;;;;;66.20;18.95;;;;;;;11.97;100.00;101998.19;5011753;28;20022;-69
2022/04/14 00:13:38;;;;;;;55.00;16.60;;;;;;;11.98;100.00;101992.06;5014334;28;20371;-70
2022/04/14 00:16:04;;;;;;;57.97;17.02;;;;;;;11.94;100.00;101999.00;5011090;28;20105;-70
2022/04/14 00:18:30;;;;;;;52.33;15.30;;;;;;;11.89;100.00;101992.66;5009551;28;20080;-69
2022/04/14 00:20:55;;;;;;;41.35;15.20;;;;;;;11.91;100.00;101984.78;5016625;28;20022;-70
2022/04/14 00:23:20;;;;;;;43.67;14.55;;;;;;;11.86;100.00;101986.41;5016118;28;20037;-70
2022/04/14 00:25:46;;;;;;;39.88;15.80;;;;;;;11.84;100.00;101988.09;5016617;28;20132;-70
2022/04/14 00:28:11;;;;;;;36.65;15.02;;;;;;;11.83;100.00;101984.56;5016843;28;20462;-70
2022/04/14 00:30:36;;;;;;;41.78;17.00;;;;;;;11.81;100.00;101979.25;5016329;28;20055;-69
2022/04/14 00:33:02;;;;;;;47.92;17.05;;;;;;;11.81;100.00;101979.25;5016090;28;20121;-69
2022/04/14 00:35:27;;;;;;;61.20;20.58;;;;;;;11.75;100.00;101978.19;5016119;28;20025;-70
2022/04/14 00:37:52;;;;;;;53.83;19.13;;;;;;;11.73;100.00;101980.75;5016423;28;20025;-70
2022/04/14 00:40:18;;;;;;;71.80;24.88;;;;;;;11.72;100.00;101976.34;5018408;28;20109;-70
2022/04/14 00:42:43;;;;;;;69.95;24.92;;;;;;;11.73;100.00;101982.50;5015320;28;20034;-70
2022/04/14 00:45:09;;;;;;;78.20;27.65;;;;;;;11.68;100.00;101982.38;5016358;28;20560;-69
2022/04/14 00:47:38;;;;;;;76.00;29.35;;;;;;;11.69;100.00;101976.22;5015661;28;20474;-70
2022/04/14 00:50:04;;;;;;;76.70;29.15;;;;;;;11.67;100.00;101979.69;5016201;28;20029;-69
2022/04/14 00:52:29;;;;;;;78.07;29.77;;;;;;;11.61;100.00;101975.09;4979044;28;20114;-70
2022/04/14 00:54:55;;;;;;;74.97;28.77;;;;;;;11.58;100.00;101964.47;5009681;28;20507;-70
2022/04/14 00:57:20;;;;;;;73.13;28.00;;;;;;;11.53;100.00;101972.25;4997062;28;20022;-70
2022/04/14 00:59:45;;;;;;;84.35;28.30;;;;;;;11.51;100.00;101973.06;5015861;28;20109;-70
2022/04/14 01:02:11;;;;;;;73.47;27.77;;;;;;;11.50;100.00;101973.88;5014484;28;20046;-69
2022/04/14 01:04:37;;;;;;;78.43;28.83;;;;;;;11.45;100.00;101984.31;5015956;28;20018;-69
2022/04/14 01:07:06;;;;;;;78.72;28.00;;;;;;;11.44;100.00;101980.75;5014506;28;20021;-69
2022/04/14 01:09:33;;;;;;;77.65;26.75;;;;;;;11.42;100.00;101989.44;5012003;28;20038;-70
2022/04/14 01:11:58;;;;;;;70.45;25.80;;;;;;;11.41;100.00;101988.56;5012788;28;20026;-69
2022/04/14 01:14:29;;;;;;;50.85;21.67;;;;;;;11.37;100.00;101985.81;5015958;28;20057;-70
2022/04/14 01:16:57;;;;;;;49.22;20.00;;;;;;;11.38;100.00;101991.13;5010716;28;20022;-70
2022/04/14 01:19:22;;;;;;;41.95;18.27;;;;;;;11.38;100.00;101996.38;4993932;28;20034;-70
2022/04/14 01:22:01;;;;;;;41.88;18.42;;;;;;;11.37;100.00;101996.34;4997587;28;20516;-70
2022/04/14 01:24:28;;;;;;;46.15;18.80;;;;;;;11.34;100.00;101991.88;5014471;28;20026;-69
2022/04/14 01:26:54;;;;;;;40.38;18.55;;;;;;;11.33;100.00;101992.72;5014924;28;20105;-70
2022/04/14 01:29:22;;;;;;;47.38;19.67;;;;;;;11.25;100.00;101991.56;5012552;28;20091;-70
2022/04/14 01:31:49;;;;;;;39.83;18.25;;;;;;;11.19;100.00;102001.88;5014567;28;20045;-69
2022/04/14 01:34:14;;;;;;;42.83;17.35;;;;;;;11.14;100.00;101993.84;5014369;28;20390;-69
2022/04/14 01:36:39;;;;;;;31.17;15.68;;;;;;;11.13;100.00;102000.84;5015360;28;20053;-70
2022/04/14 01:39:05;;;;;;;29.80;15.15;;;;;;;11.09;100.00;101996.31;5010887;28;20093;-69
2022/04/14 01:41:30;;;;;;;39.65;17.60;;;;;;;11.02;100.00;102004.88;4996230;28;20037;-70
2022/04/14 01:43:55;;;;;;;32.97;15.82;;;;;;;10.94;100.00;102009.00;5013022;28;20108;-70
2022/04/14 01:46:21;;;;;;;34.42;16.10;;;;;;;10.88;100.00;102004.41;5013025;28;20434;-69
2022/04/14 01:48:47;;;;;;;40.92;17.67;;;;;;;10.83;100.00;102000.72;5015149;28;20080;-70
2022/04/14 01:51:12;;;;;;;41.08;18.83;;;;;;;10.76;100.00;101996.97;5014905;28;20037;-70
2022/04/14 01:53:37;;;;;;;38.30;17.60;;;;;;;10.70;100.00;102004.69;5013750;28;20026;-70
2022/04/14 01:56:03;;;;;;;36.78;16.98;;;;;;;10.66;100.00;102000.13;5015135;28;20033;-70
2022/04/14 01:58:28;;;;;;;37.85;16.85;;;;;;;10.62;100.00;102001.78;5013758;28;20026;-70
2022/04/14 02:00:54;;;;;;;29.38;15.68;;;;;;;10.61;100.00;102009.63;5013046;28;20041;-70
2022/04/14 02:03:19;;;;;;;29.30;15.93;;;;;;;10.56;100.00;102008.56;5014785;28;20485;-70
2022/04/14 02:05:44;;;;;;;32.75;16.30;;;;;;;10.52;100.00;102014.56;5014614;28;20025;-70
2022/04/14 02:08:10;;;;;;;26.85;15.20;;;;;;;10.45;100.00;102013.44;5013679;28;20109;-69
2022/04/14 02:10:35;;;;;;;28.17;15.10;;;;;;;10.40;100.00;102013.25;5013401;28;20029;-69
2022/04/14 02:13:00;;;;;;;31.33;16.02;;;;;;;10.38;100.00;102012.31;5013726;28;20025;-70
2022/04/14 02:15:26;;;;;;;33.25;15.77;;;;;;;10.38;100.00;102014.06;5013905;28;20112;-70
2022/04/14 02:17:51;;;;;;;31.02;15.60;;;;;;;10.33;100.00;102011.22;5012046;28;20107;-69
2022/04/14 02:20:16;;;;;;;32.53;15.52;;;;;;;10.30;100.00;102021.63;4996831;28;20029;-70
2022/04/14 02:22:42;;;;;;;27.40;15.50;;;;;;;10.22;100.00;102023.97;4995329;28;20073;-70
2022/04/14 02:25:08;;;;;;;28.63;15.30;;;;;;;10.15;100.00;102018.41;5010589;28;20072;-70
2022/04/14 02:27:34;;;;;;;35.75;17.02;;;;;;;10.06;100.00;102017.25;5012972;28;20040;-70
2022/04/14 02:29:59;;;;;;;28.63;16.20;;;;;;;10.10;100.00;102024.41;5014509;28;20401;-70
2022/04/14 02:32:25;;;;;;;29.42;17.02;;;;;;;10.12;100.00;102022.75;5013836;28;20022;-69
2022/04/14 02:34:50;;;;;;;32.75;17.35;;;;;;;10.07;100.00;102019.03;5014076;28;20030;-69
2022/04/14 02:37:15;;;;;;;38.67;18.02;;;;;;;10.00;100.00;102014.41;4996872;28;20084;-70
2022/04/14 02:39:41;;;;;;;38.17;18.55;;;;;;;9.95;100.00;102019.47;5011497;28;20014;-69
2022/04/14 02:42:06;;;;;;;37.05;18.45;;;;;;;9.88;100.00;102021.81;5013030;28;20033;-70
2022/04/14 02:44:31;;;;;;;40.67;20.40;;;;;;;9.89;100.00;102020.97;5011702;28;20061;-69
2022/04/14 02:46:57;;;;;;;36.00;17.70;;;;;;;9.90;100.00;102028.03;5013952;28;20026;-69
2022/04/14 02:49:23;;;;;;;39.35;19.17;;;;;;;9.86;100.00;102012.97;5013156;28;20533;-69
2022/04/14 02:51:48;;;;;;;32.22;18.02;;;;;;;9.93;100.00;102023.78;5014100;28;20065;-69
2022/04/14 02:54:14;;;;;;;45.90;19.88;;;;;;;9.84;100.00;102017.28;5013128;28;20061;-69
2022/04/14 02:56:39;;;;;;;39.97;17.60;;;;;;;9.77;100.00;102014.41;5012427;28;20030;-70
2022/04/14 02:59:05;;;;;;;41.05;19.75;;;;;;;9.72;100.00;102008.06;5012883;28;20072;-69
2022/04/14 03:01:30;;;;;;;38.45;20.05;;;;;;;9.71;100.00;102013.28;4995230;28;20075;-69
2022/04/14 03:03:56;;;;;;;39.78;19.73;;;;;;;9.59;100.00;102027.72;5013450;28;20145;-70
2022/04/14 03:06:21;;;;;;;38.35;19.55;;;;;;;9.60;100.00;102028.63;5013476;28;20045;-69
2022/04/14 03:08:47;;;;;;;37.05;19.42;;;;;;;9.54;100.00;102023.13;5013246;28;20107;-69
2022/04/14 03:11:12;;;;;;;40.60;19.15;;;;;;;9.55;100.00;102024.91;5011547;28;20034;-69
2022/04/14 03:13:38;;;;;;;33.17;18.77;;;;;;;9.55;100.00;102022.28;5009808;28;20037;-69
2022/04/14 03:16:04;;;;;;;40.30;19.52;;;;;;;9.49;100.00;102022.06;4994668;28;20385;-70
2022/04/14 03:18:30;;;;;;;40.17;19.92;;;;;;;9.53;100.00;102014.34;5012991;28;20474;-69
2022/04/14 03:20:55;;;;;;;36.65;19.00;;;;;;;9.63;100.00;102026.13;5013030;28;20105;-69
2022/04/14 03:23:20;;;;;;;42.83;19.42;;;;;;;9.57;100.00;102021.50;5011930;28;20454;-69
2022/04/14 03:25:46;;;;;;;38.17;19.38;;;;;;;9.49;100.00;102028.19;5013516;28;20117;-69
2022/04/14 03:28:11;;;;;;;41.35;20.30;;;;;;;9.57;100.00;102031.13;5011063;28;20113;-70
2022/04/14 03:30:36;;;;;;;30.38;18.15;;;;;;;9.52;100.00;102032.66;5013577;28;20080;-69
2022/04/14 03:33:02;;;;;;;38.00;18.92;;;;;;;9.53;100.00;102030.09;5012414;28;20030;-73
2022/04/14 03:35:27;;;;;;;40.50;20.02;;;;;;;9.55;100.00;102028.44;5013264;28;20048;-69
2022/04/14 03:37:52;;;;;;;34.05;17.77;;;;;;;9.46;100.00;102033.31;4995650;28;20101;-69
2022/04/14 03:40:18;;;;;;;39.22;20.13;;;;;;;9.47;100.00;102034.22;5010747;28;20064;-70
2022/04/14 03:42:43;;;;;;;35.40;17.85;;;;;;;9.35;100.00;102030.28;5012798;28;20073;-69
2022/04/14 03:45:09;;;;;;;33.22;18.98;;;;;;;9.40;100.00;102036.59;5011804;28;20022;-69
2022/04/14 03:47:35;;;;;;;30.48;19.17;;;;;;;9.32;100.00;102031.88;5012566;28;20061;-69
2022/04/14 03:50:01;;;;;;;41.42;19.88;;;;;;;9.30;100.00;102036.16;5012945;28;20375;-70
2022/04/14 03:52:26;;;;;;;35.20;19.10;;;;;;;9.36;100.00;102039.03;5013093;28;20036;-70
2022/04/14 03:54:51;;;;;;;35.60;20.35;;;;;;;9.28;100.00;102028.22;5011737;28;20037;-69
2022/04/14 03:57:17;;;;;;;39.75;19.83;;;;;;;9.23;100.00;102032.41;5007660;28;20030;-70
2022/04/14 03:59:42;;;;;;;34.60;19.05;;;;;;;9.25;100.00;102033.34;5006539;28;20068;-70
2022/04/14 04:02:08;;;;;;;44.72;19.83;;;;;;;9.23;100.00;102037.66;5012529;28;20068;-70
2022/04/14 04:04:33;;;;;;;35.97;19.08;;;;;;;9.20;100.00;102029.66;5011908;28;20466;-69
2022/04/14 04:06:59;;;;;;;30.65;19.70;;;;;;;9.18;100.00;102036.56;5012182;28;20028;-69
2022/04/14 04:09:26;;;;;;;33.67;19.10;;;;;;;9.10;100.00;102033.59;4994140;28;20033;-69
2022/04/14 04:11:52;;;;;;;38.22;20.10;;;;;;;9.25;100.00;102038.59;5011585;28;20026;-69
2022/04/14 04:14:17;;;;;;;35.08;20.05;;;;;;;9.17;100.00;102038.28;5009905;28;20512;-70
2022/04/14 04:16:43;;;;;;;34.03;18.42;;;;;;;9.18;100.00;102031.31;5012652;28;20101;-69
2022/04/14 04:19:08;;;;;;;33.13;19.15;;;;;;;9.16;100.00;102028.63;5010866;28;20025;-70
2022/04/14 04:21:33;;;;;;;33.75;20.13;;;;;;;9.18;100.00;102036.56;5012274;28;20073;-69
2022/04/14 04:23:59;;;;;;;33.08;20.20;;;;;;;9.13;100.00;102032.84;5012521;28;20030;-70
2022/04/14 04:26:24;;;;;;;36.58;20.55;;;;;;;9.15;100.00;102036.44;5010544;28;20394;-70
2022/04/14 04:28:49;;;;;;;38.75;19.23;;;;;;;9.17;100.00;102035.66;5009945;28;20026;-70
2022/04/14 04:31:15;;;;;;;29.33;18.25;;;;;;;9.10;100.00;102039.75;5011301;28;20036;-69
2022/04/14 04:33:40;;;;;;;32.10;18.52;;;;;;;9.10;100.00;102031.88;5010762;28;20053;-69
2022/04/14 04:36:07;;;;;;;29.65;19.95;;;;;;;9.14;100.00;102039.88;5010808;28;20541;-69
2022/04/14 04:38:32;;;;;;;37.45;20.08;;;;;;;9.11;100.00;102041.56;5010230;28;20034;-69
2022/04/14 04:40:58;;;;;;;32.78;18.73;;;;;;;9.10;100.00;102044.09;5010836;28;20096;-69
2022/04/14 04:43:24;;;;;;;33.38;18.60;;;;;;;9.09;100.00;102045.84;4993426;28;20474;-70
2022/04/14 04:45:50;;;;;;;34.33;18.65;;;;;;;9.03;100.00;102042.94;5011735;28;20080;-69
2022/04/14 04:48:15;;;;;;;33.33;16.92;;;;;;;8.98;100.00;102051.47;5010148;28;20140;-70
2022/04/14 04:50:40;;;;;;;38.03;19.35;;;;;;;9.00;100.00;102053.31;5012315;28;20029;-69
2022/04/14 04:53:06;;;;;;;36.67;18.45;;;;;;;8.95;100.00;102054.84;5014071;28;20116;-70
2022/04/14 04:55:31;;;;;;;31.33;17.95;;;;;;;8.94;100.00;102066.22;5012114;28;20486;-70
2022/04/14 04:57:56;;;;;;;36.65;19.27;;;;;;;8.93;100.00;102067.91;5010222;28;20025;-70
2022/04/14 05:00:22;;;;;;;31.95;18.48;;;;;;;8.94;100.00;102066.22;5007775;28;20096;-69
2022/04/14 05:02:48;;;;;;;32.60;18.85;;;;;;;8.91;100.00;102069.59;5012530;28;20595;-69
2022/04/14 05:05:13;;;;;;;31.02;19.50;;;;;;;8.94;100.00;102068.84;5015516;28;20109;-69
2022/04/14 05:07:38;;;;;;;30.77;19.80;;;;;;;8.93;100.00;102065.28;5015974;28;20410;-69
2022/04/14 05:10:04;;;;;;;30.33;20.48;;;;;;;8.89;100.00;102075.59;5012018;28;20095;-69
2022/04/14 05:12:30;;;;;;;32.78;19.08;;;;;;;8.85;100.00;102077.19;5014381;28;20432;-70
2022/04/14 05:14:55;;;;;;;31.10;19.33;;;;;;;8.87;100.00;102091.28;5004215;28;20382;-70
2022/04/14 05:17:20;;;;;;;29.40;19.23;;;;;;;8.90;100.00;102093.16;4977278;28;20033;-69
2022/04/14 05:19:45;;;;;;;37.30;21.25;;;;;;;8.91;100.00;102084.44;5010417;28;20490;-69
2022/04/14 05:22:11;;;;;;;37.50;21.35;;;;;;;8.95;100.00;102088.97;5011964;28;20050;-70
2022/04/14 05:24:36;;;;;;;37.42;21.10;;;;;;;8.99;100.00;102090.91;4989894;28;20036;-69
2022/04/14 05:27:02;;;;;;;38.10;21.75;;;;;;;9.03;100.00;102082.31;5016835;28;20022;-69
2022/04/14 05:29:27;;;;;;;38.92;22.83;;;;;;;9.06;100.00;102085.09;5014752;28;20049;-70
2022/04/14 05:31:53;;;;;;;34.97;21.40;;;;;;;9.11;100.00;102090.53;5012183;28;20049;-69
2022/04/14 05:34:19;;;;;;;35.60;21.05;;;;;;;9.11;100.00;102087.91;5013949;28;20069;-69
2022/04/14 05:36:44;;;;;;;39.13;22.40;;;;;;;9.15;100.00;102094.22;5014304;28;20041;-69
2022/04/14 05:39:10;;;;;;;36.05;21.70;;;;;;;9.21;100.00;102094.44;5014181;28;20017;-69
2022/04/14 05:41:35;;;;;;;41.17;21.10;;;;;;;9.24;100.00;102097.22;5015320;28;20543;-67
2022/04/14 05:44:00;;;;;;;32.55;19.77;;;;;;;9.25;100.00;102094.66;5014871;28;20032;-73
2022/04/14 05:46:26;;;;;;;42.35;20.90;;;;;;;9.26;100.00;102093.84;5015285;28;20045;-73
2022/04/14 05:48:51;;;;;;;39.88;20.70;;;;;;;9.32;100.00;102098.44;5014199;28;20040;-68
2022/04/14 05:51:17;;;;;;;31.75;18.90;;;;;;;9.39;100.00;102100.47;5012455;28;20040;-69
2022/04/14 05:53:42;;;;;;;30.70;19.85;;;;;;;9.42;100.00;102103.22;5011408;28;20091;-69
2022/04/14 05:56:08;;;;;;;41.28;20.85;;;;;;;9.45;100.00;102099.84;5013063;28;20041;-70
2022/04/14 05:58:34;;;;;;;34.78;20.65;;;;;;;9.50;100.00;102102.69;5013031;28;20037;-69
2022/04/14 06:00:59;;;;;;;37.10;19.75;;;;;;;9.56;100.00;102095.03;5013477;28;20018;-69
2022/04/14 06:03:25;;;;;;;32.22;19.33;;;;;;;9.59;100.00;102103.03;5013679;28;20045;-69
2022/04/14 06:05:51;;;;;;;33.58;19.65;;;;;;;9.67;100.00;102096.38;5014040;28;20030;-68
2022/04/14 06:08:17;;;;;;;30.88;18.13;;;;;;;9.70;100.00;102101.75;5014378;28;20025;-69
2022/04/14 06:10:42;;;;;;;30.75;18.58;;;;;;;9.80;100.00;102103.00;4989587;28;20026;-70
2022/04/14 06:13:08;;;;;;;29.15;17.15;;;;;;;9.84;100.00;102109.28;5013818;28;20398;-69
2022/04/14 06:15:33;;;;;;;32.08;16.60;;;;;;;9.89;100.00;102102.47;5004464;28;20080;-70
2022/04/14 06:17:59;;;;;;;34.53;17.17;;;;;;;9.98;100.00;102102.84;4996677;28;20026;-73
2022/04/14 06:20:24;;;;;;;32.65;16.65;;;;;;;10.04;100.00;102107.47;4995931;28;20124;-73
2022/04/14 06:22:50;;;;;;;27.50;15.68;;;;;;;10.11;100.00;102105.09;5014447;28;20049;-73
2022/04/14 06:25:22;;;;;;;25.55;14.00;;;;;;;10.19;100.00;102105.41;5014233;28;20029;-73
2022/04/14 06:27:49;;;;;;;28.00;16.00;;;;;;;10.32;100.00;102103.25;5013962;28;20032;-73
2022/04/14 06:30:15;;;;;;;23.27;14.13;;;;;;;10.42;100.00;102103.69;4997750;28;20033;-73
2022/04/14 06:33:00;;;;;;;21.13;12.88;;;;;;;10.46;100.00;102108.22;5013567;28;20030;-73
2022/04/14 06:35:25;;;;;;;26.05;13.85;;;;;;;10.50;100.00;102110.97;5004254;28;20022;-74
2022/04/14 06:37:51;;;;;;;22.70;13.30;;;;;;;10.58;100.00;102112.13;4996552;28;20056;-75
2022/04/14 06:40:17;;;;;;;18.42;13.00;;;;;;;10.65;100.00;102122.06;5013107;28;22166;-74
2022/04/14 06:42:42;;;;;;;27.02;13.73;;;;;;;10.72;100.00;102125.84;5014362;28;20040;-74
2022/04/14 06:45:08;;;;;;;28.40;13.68;;;;;;;10.76;100.00;102130.38;5013324;28;20045;-74
2022/04/14 06:47:33;;;;;;;29.02;14.77;;;;;;;10.82;100.00;102127.06;5013904;28;20370;-74
2022/04/14 06:49:59;;;;;;;24.77;13.18;;;;;;;10.78;100.00;102129.59;4996513;28;20058;-75
2022/04/14 06:52:24;;;;;;;24.67;13.73;;;;;;;10.83;100.00;102134.13;5014214;28;20558;-75
2022/04/14 06:54:50;;;;;;;24.00;12.57;;;;;;;10.85;100.00;102133.34;5014172;28;20032;-75
2022/04/14 06:57:16;;;;;;;27.95;13.82;;;;;;;10.86;100.00;102129.84;5013840;28;20037;-76
2022/04/14 06:59:42;;;;;;;25.67;13.90;;;;;;;10.87;100.00;102114.97;5014208;28;20478;-73
2022/04/14 07:02:07;;;;;;;27.33;14.55;;;;;;;10.88;100.00;102135.16;5016037;28;20100;-73
2022/04/14 07:04:36;;;;;;;22.63;13.57;;;;;;;10.91;100.00;102138.81;5014039;28;20036;-70
2022/04/14 07:07:02;;;;;;;21.30;13.32;;;;;;;10.93;100.00;102142.41;5013865;28;20099;-72
2022/04/14 07:09:32;;;;;;;21.05;13.27;;;;;;;10.96;100.00;102134.63;5013697;28;20065;-72
2022/04/14 07:11:59;;;;;;;27.50;13.75;;;;;;;11.02;100.00;102144.47;4994372;28;20029;-73
2022/04/14 07:14:26;;;;;;;20.20;12.90;;;;;;;11.07;100.00;102140.25;5013927;28;20367;-72
2022/04/14 07:16:52;;;;;;;22.67;13.20;;;;;;;11.13;100.00;102137.81;5013549;28;20030;-73
2022/04/14 07:19:17;;;;;;;23.88;13.35;;;;;;;11.19;100.00;102134.53;5013524;28;20362;-70
2022/04/14 07:21:43;;;;;;;22.85;12.70;;;;;;;11.24;100.00;102142.59;5013978;28;20129;-72
2022/04/14 07:24:08;;;;;;;21.48;12.10;;;;;;;11.31;100.00;102141.94;5012059;28;20048;-73
2022/04/14 07:26:34;;;;;;;24.65;12.02;;;;;;;11.36;100.00;102140.38;5013282;28;20049;-71
2022/04/14 07:28:59;;;;;;;21.33;12.43;;;;;;;11.42;100.00;102145.88;4979869;28;20040;-71
2022/04/14 07:31:24;;;;;;;20.25;12.07;;;;;;;11.51;100.00;102142.63;5012297;28;20473;-71
2022/04/14 07:33:50;;;;;;;17.45;11.50;;;;;;;11.59;100.00;102138.50;5012604;28;20470;-71
2022/04/14 07:36:19;;;;;;;24.30;12.18;;;;;;;11.69;100.00;102142.34;4995569;28;20030;-71
2022/04/14 07:38:44;;;;;;;18.48;11.52;;;;;;;11.75;100.00;102142.56;5013457;28;20032;-71
2022/04/14 07:41:10;;;;;;;28.08;12.45;;;;;;;11.83;100.00;102145.44;5012790;28;20030;-71
2022/04/14 07:43:35;;;;;;;20.55;12.02;;;;;;;11.94;100.00;102153.72;5014584;28;20068;-71
2022/04/14 07:46:01;;;;;;;27.63;11.82;;;;;;;12.03;100.00;102154.03;5014552;28;20040;-67
2022/04/14 07:48:26;;;;;;;23.38;11.98;;;;;;;12.12;100.00;102156.06;5012598;28;20034;-70
2022/04/14 07:50:52;;;;;;;25.98;12.32;;;;;;;12.24;100.00;102158.19;5009909;28;20037;-71
2022/04/14 07:53:18;;;;;;;19.08;10.57;;;;;;;12.37;100.00;102165.63;4993059;28;20478;-71
2022/04/14 07:55:43;;;;;;;16.73;9.65;;;;;;;12.44;100.00;102151.78;5011369;28;20017;-71
2022/04/14 07:58:09;;;;;;;16.48;10.75;;;;;;;12.52;100.00;102154.66;5012797;28;20449;-71
2022/04/14 08:00:36;;;;;;;21.48;10.68;;;;;;;12.62;100.00;102151.41;5011838;28;20533;-71
2022/04/14 08:03:03;;;;;;;17.33;9.93;;;;;;;12.69;100.00;102149.84;5012268;28;20030;-71
2022/04/14 08:05:48;;;;;;;21.45;9.38;;;;;;;12.79;100.00;102143.97;4994574;28;20103;-72
2022/04/14 08:08:16;;;;;;;17.65;9.68;;;;;;;12.94;100.00;102147.88;5012011;28;20037;-71
2022/04/14 08:10:43;;;;;;;20.13;9.85;;;;;;;13.05;100.00;102154.38;4995168;28;20025;-71
2022/04/14 08:13:09;;;;;;;19.58;10.75;;;;;;;13.17;100.00;102151.16;5011086;28;20522;-72
2022/04/14 08:15:35;;;;;;;24.45;9.45;;;;;;;13.25;100.00;102146.09;5011036;28;20152;-71
2022/04/14 08:18:00;;;;;;;19.02;9.25;;;;;;;13.26;100.00;102145.22;5013939;28;20026;-71
2022/04/14 08:20:27;;;;;;;19.05;10.02;;;;;;;13.39;100.00;102142.09;5012631;28;20022;-71
2022/04/14 08:22:55;;;;;;;15.30;8.38;;;;;;;13.51;100.00;102140.59;5012660;28;20128;-72
2022/04/14 08:25:21;;;;;;;13.48;8.05;;;;;;;13.58;100.00;102147.84;4974047;28;20042;-72
2022/04/14 08:27:48;;;;;;;16.25;8.55;;;;;;;13.65;100.00;102139.22;5010916;28;20172;-72
2022/04/14 08:30:17;;;;;;;12.25;8.35;;;;;;;13.76;100.00;102142.13;5012726;28;20057;-72
2022/04/14 08:32:44;;;;;;;14.07;8.77;;;;;;;13.81;100.00;102151.97;5012801;28;20076;-72
2022/04/14 08:35:11;;;;;;;13.30;6.90;;;;;;;13.89;100.00;102156.53;5012768;28;20032;-72
2022/04/14 08:37:38;;;;;;;19.58;7.53;;;;;;;13.99;100.00;102150.59;5013125;28;20080;-72
2022/04/14 08:40:08;;;;;;;13.63;8.63;;;;;;;14.13;100.00;102135.94;4998907;28;20470;-72
2022/04/14 08:42:57;;;;;;;20.15;8.18;;;;;;;14.18;100.00;102135.16;5015744;28;20104;-72
2022/04/14 08:45:26;;;;;;;20.52;7.53;;;;;;;14.17;100.00;102118.38;5014486;28;20033;-72
2022/04/14 08:47:51;;;;;;;11.32;6.68;;;;;;;14.37;100.00;102121.44;4998605;28;20033;-72
2022/04/14 08:50:17;;;;;;;9.40;6.50;;;;;;;14.54;100.00;102118.25;5016122;28;20137;-72
2022/04/14 08:52:42;;;;;;;14.80;7.80;;;;;;;14.70;100.00;102119.50;5016414;28;20060;-73
2022/04/14 08:55:11;;;;;;;13.20;7.65;;;;;;;14.86;100.00;102110.09;5014449;28;20026;-72
2022/04/14 08:57:38;;;;;;;10.27;6.53;;;;;;;15.09;98.40;102118.50;5010994;28;20021;-72
2022/04/14 09:00:06;;;;;;;11.65;6.40;;;;;;;15.22;96.15;102112.53;5015373;28;20034;-72
2022/04/14 09:02:33;;;;;;;13.38;7.38;;;;;;;15.38;96.90;102113.69;4997282;28;20085;-72
2022/04/14 09:04:59;;;;;;;12.88;7.07;;;;;;;15.57;98.39;102106.03;5015696;28;20030;-72
2022/04/14 09:07:25;;;;;;;9.38;6.45;;;;;;;15.71;96.74;102104.50;4997494;28;20402;-73
2022/04/14 09:09:51;;;;;;;14.10;6.78;;;;;;;15.85;96.50;102112.72;4997778;28;20034;-73
2022/04/14 09:12:17;;;;;;;12.88;6.70;;;;;;;16.00;95.86;102112.03;5013913;28;20065;-71
2022/04/14 09:14:42;;;;;;;8.82;6.20;;;;;;;16.11;96.69;102121.03;5015647;28;20060;-72
2022/04/14 09:17:09;;;;;;;9.70;5.78;;;;;;;16.13;94.11;102134.38;5014067;28;20470;-72
2022/04/14 09:19:36;;;;;;;11.80;7.20;;;;;;;16.11;90.79;102136.97;5012415;28;20034;-73
2022/04/14 09:22:04;;;;;;;19.00;7.63;;;;;;;16.25;91.67;102136.28;5009104;28;20049;-72
2022/04/14 09:24:50;;;;;;;14.77;7.70;;;;;;;16.30;90.34;102142.56;4999513;28;20073;-72
2022/04/14 09:27:29;;;;;;;11.00;5.25;;;;;;;16.46;87.77;102147.19;5015700;28;20033;-72
2022/04/14 09:29:56;;;;;;;11.95;6.00;;;;;;;16.66;88.50;102157.22;5008853;28;20087;-72
2022/04/14 09:32:44;;;;;;;7.25;4.68;;;;;;;16.94;89.68;102168.19;5013432;28;20397;-72
2022/04/14 09:35:17;;;;;;;7.97;5.53;;;;;;;17.10;89.26;102169.25;5010612;28;20042;-72
2022/04/14 09:37:42;;;;;;;;;;;;;;;17.10;86.46;102164.81;5012665;28;20512;-72
2022/04/14 09:40:09;;;;;;;15.20;6.28;;;;;;;17.08;85.50;102166.59;4999182;28;19949;-72
2022/04/14 09:42:37;;;;;;;12.55;5.93;;;;;;;17.06;87.40;102173.63;5014694;28;20033;-72
2022/04/14 09:45:17;;;;;;;9.82;5.60;;;;;;;16.95;87.89;102175.28;5015087;28;20033;-72
2022/04/14 09:47:42;;;;;;;9.93;5.50;;;;;;;16.81;89.17;102175.09;5014378;28;20030;-72
2022/04/14 09:50:26;;;;;;;11.15;5.60;;;;;;;16.71;95.33;102176.75;5012342;28;20037;-71
2022/04/14 09:53:12;;;;;;;12.07;5.70;;;;;;;16.68;92.57;102168.72;5014215;28;20030;-71
2022/04/14 09:55:42;;;;;;;8.38;4.30;;;;;;;16.79;88.99;102169.78;5014120;28;20156;-71
2022/04/14 09:58:10;;;;;;;9.07;3.50;;;;;;;17.05;86.62;102171.88;5015164;28;20029;-72
2022/04/14 10:00:41;;;;;;;9.40;3.83;;;;;;;17.30;84.48;102172.13;5015035;28;20033;-72
2022/04/14 10:03:12;;;;;;;11.20;4.78;;;;;;;17.20;85.72;102176.47;5015075;28;20037;-72
2022/04/14 10:05:37;;;;;;;10.07;5.57;;;;;;;17.51;83.13;102175.00;5012204;28;20033;-72
2022/04/14 10:08:07;;;;;;;9.85;4.72;;;;;;;17.58;80.75;102164.38;5015096;28;20025;-72
2022/04/14 10:10:33;;;;;;;10.60;4.95;;;;;;;17.87;82.91;102170.84;5013817;28;20029;-72
2022/04/14 10:13:05;;;;;;;11.02;5.95;;;;;;;18.28;82.48;102177.34;4997390;28;20417;-72
2022/04/14 10:15:33;;;;;;;10.10;4.35;;;;;;;18.70;80.74;102174.91;5015032;28;20473;-72
2022/04/14 10:18:03;;;;;;;9.45;4.65;;;;;;;18.75;78.62;102170.50;5013484;28;20084;-72
2022/04/14 10:20:29;;;;;;;9.73;5.20;;;;;;;18.42;79.92;102180.13;4997352;28;20036;-73
2022/04/14 10:22:56;;;;;;;8.40;4.32;;;;;;;18.09;81.52;102180.81;5014389;28;20049;-73
2022/04/14 10:25:21;;;;;;;11.93;5.40;;;;;;;17.86;82.75;102178.81;5014094;28;20481;-73
2022/04/14 10:27:51;;;;;;;7.97;4.78;;;;;;;17.46;84.90;102182.03;5012935;28;20024;-73
2022/04/14 10:30:19;;;;;;;6.68;4.07;;;;;;;17.52;86.40;102190.06;5016725;28;20033;-73
2022/04/14 10:32:46;;;;;;;11.73;5.05;;;;;;;17.81;84.33;102191.19;5004228;28;20084;-73
2022/04/14 10:35:11;;;;;;;8.43;4.40;;;;;;;18.12;82.62;102189.72;5019198;28;20068;-73
2022/04/14 10:37:51;;;;;;;8.32;4.70;;;;;;;18.46;81.50;102187.25;5015770;28;20062;-73
2022/04/14 10:40:16;;;;;;;9.13;4.93;;;;;;;18.74;81.48;102190.03;5003738;28;20087;-73
2022/04/14 10:42:51;;;;;;;6.88;4.60;;;;;;;18.96;79.04;102198.16;5013665;28;20057;-73
2022/04/14 10:45:19;;;;;;;9.10;4.85;;;;;;;19.30;78.59;102184.91;5014081;28;20080;-73
2022/04/14 10:47:50;;;;;;;7.40;4.30;;;;;;;19.39;75.98;102187.59;5011246;28;20434;-71
2022/04/14 10:50:31;;;;;;;9.85;5.07;;;;;;;19.24;75.12;102184.91;5003669;28;20095;-74
2022/04/14 10:53:04;;;;;;;11.18;4.88;;;;;;;19.10;74.88;102191.09;5012841;28;20143;-73
2022/04/14 10:55:38;;;;;;;6.45;4.10;;;;;;;19.25;79.55;102192.91;5013400;28;20030;-74
2022/04/14 10:58:05;;;;;;;7.60;3.85;;;;;;;19.44;75.85;102185.81;5004776;28;20029;-73
2022/04/14 11:00:31;;;;;;;5.95;4.00;;;;;;;19.40;77.01;102193.81;4978877;28;20030;-73
2022/04/14 11:03:11;;;;;;;6.22;4.07;;;;;;;19.48;77.06;102195.59;5013349;28;20481;-71
2022/04/14 11:05:50;;;;;;;7.15;3.50;;;;;;;19.79;76.53;102198.31;4993106;28;20033;-73
2022/04/14 11:08:31;;;;;;;8.48;3.72;;;;;;;20.21;71.37;102192.91;5013518;28;20072;-72